sensor_id;sensor_type;location;lat;lon;timestamp;pressure;altitude;pressure_sealevel;temperature;humidity
4972;BME280;2501;51.214;6.768;2022-07-06T00:01:20;102028.53;;;15.70;100.00
4972;BME280;2501;51.214;6.768;2022-07-06T00:03:49;102034.91;;;15.70;100.00
4972;BME280;2501;51.214;6.768;2022-07-06T00:06:18;102024.91;;;15.66;100.00
4972;BME280;2501;51.214;6.768;2022-07-06T00:08:46;102029.91;;;15.42;100.00
4972;BME280;2501;51.214;6.768;2022-07-06T00:11:15;102026.91;;;15.65;100.00
4972;BME280;2501;51.214;6.768;2022-07-06T00:13:46;102020.91;;;15.59;100.00
4972;BME280;2501;51.214;6.768;2022-07-06T00:16:15;102019.25;;;15.55;100.00
4972;BME280;2501;51.214;6.768;2022-07-06T00:18:43;102026.47;;;15.56;100.00
4972;BME280;2501;51.214;6.768;2022-07-06T00:21:12;102019.78;;;15.24;100.00
4972;BME280;2501;51.214;6.768;2022-07-06T00:23:40;102030.31;;;15.44;100.00
4972;BME280;2501;51.214;6.768;2022-07-06T00:26:09;102027.19;;;15.49;100.00
4972;BME280;2501;51.214;6.768;2022-07-06T00:28:37;102029.03;;;15.35;100.00
4972;BME280;2501;51.214;6.768;2022-07-06T00:31:09;102021.44;;;15.32;100.00
4972;BME280;2501;51.214;6.768;2022-07-06T00:33:37;102027.63;;;15.11;100.00
4972;BME280;2501;51.214;6.768;2022-07-06T00:36:06;102016.25;;;15.30;100.00
4972;BME280;2501;51.214;6.768;2022-07-06T00:38:34;102023.34;;;15.21;100.00
4972;BME280;2501;51.214;6.768;2022-07-06T00:41:03;102021.38;;;15.25;100.00
4972;BME280;2501;51.214;6.768;2022-07-06T00:43:46;102023.31;;;15.17;100.00
4972;BME280;2501;51.214;6.768;2022-07-06T00:46:18;102023.81;;;15.30;100.00
4972;BME280;2501;51.214;6.768;2022-07-06T00:48:46;102018.13;;;15.15;100.00
4972;BME280;2501;51.214;6.768;2022-07-06T00:51:15;102019.59;;;15.06;100.00
4972;BME280;2501;51.214;6.768;2022-07-06T00:53:44;102023.56;;;15.01;100.00
4972;BME280;2501;51.214;6.768;2022-07-06T00:56:13;102031.69;;;15.17;100.00
4972;BME280;2501;51.214;6.768;2022-07-06T00:58:43;102034.03;;;14.75;100.00
4972;BME280;2501;51.214;6.768;2022-07-06T01:01:11;102031.94;;;15.01;100.00
4972;BME280;2501;51.214;6.768;2022-07-06T01:03:42;102034.78;;;15.08;100.00
4972;BME280;2501;51.214;6.768;2022-07-06T01:06:11;102035.72;;;14.83;100.00
4972;BME280;2501;51.214;6.768;2022-07-06T01:08:40;102047.94;;;14.71;100.00
4972;BME280;2501;51.214;6.768;2022-07-06T01:11:08;102046.56;;;14.54;100.00
4972;BME280;2501;51.214;6.768;2022-07-06T01:13:37;102042.09;;;14.46;100.00
4972;BME280;2501;51.214;6.768;2022-07-06T01:16:06;102038.00;;;14.70;100.00
4972;BME280;2501;51.214;6.768;2022-07-06T01:18:35;102035.69;;;14.79;100.00
4972;BME280;2501;51.214;6.768;2022-07-06T01:21:13;102043.59;;;14.74;100.00
4972;BME280;2501;51.214;6.768;2022-07-06T01:23:43;102037.19;;;14.70;100.00
4972;BME280;2501;51.214;6.768;2022-07-06T01:26:13;102028.94;;;14.80;100.00
4972;BME280;2501;51.214;6.768;2022-07-06T01:28:42;102034.13;;;14.48;100.00
4972;BME280;2501;51.214;6.768;2022-07-06T01:31:14;102036.03;;;14.41;100.00
4972;BME280;2501;51.214;6.768;2022-07-06T01:33:43;102044.44;;;14.44;100.00
4972;BME280;2501;51.214;6.768;2022-07-06T01:36:15;102045.63;;;14.43;100.00
4972;BME280;2501;51.214;6.768;2022-07-06T01:38:47;102039.50;;;14.04;100.00
4972;BME280;2501;51.214;6.768;2022-07-06T01:41:17;102033.09;;;14.30;100.00
4972;BME280;2501;51.214;6.768;2022-07-06T01:43:46;102039.78;;;14.55;100.00
4972;BME280;2501;51.214;6.768;2022-07-06T01:46:15;102043.69;;;14.47;100.00
4972;BME280;2501;51.214;6.768;2022-07-06T01:48:44;102045.81;;;14.31;100.00
4972;BME280;2501;51.214;6.768;2022-07-06T01:51:15;102036.72;;;14.34;100.00
4972;BME280;2501;51.214;6.768;2022-07-06T01:53:44;102040.75;;;14.07;100.00
4972;BME280;2501;51.214;6.768;2022-07-06T01:56:13;102030.22;;;14.23;100.00
4972;BME280;2501;51.214;6.768;2022-07-06T01:58:42;102041.69;;;14.18;100.00
4972;BME280;2501;51.214;6.768;2022-07-06T02:01:14;102039.59;;;14.11;100.00
4972;BME280;2501;51.214;6.768;2022-07-06T02:03:43;102030.63;;;14.25;100.00
4972;BME280;2501;51.214;6.768;2022-07-06T02:06:12;102030.31;;;14.30;100.00
4972;BME280;2501;51.214;6.768;2022-07-06T02:08:43;102039.59;;;14.11;100.00
4972;BME280;2501;51.214;6.768;2022-07-06T02:11:11;102035.41;;;14.25;100.00
4972;BME280;2501;51.214;6.768;2022-07-06T02:13:40;102040.16;;;14.24;100.00
4972;BME280;2501;51.214;6.768;2022-07-06T02:16:09;102041.44;;;14.00;100.00
4972;BME280;2501;51.214;6.768;2022-07-06T02:18:38;102047.94;;;14.11;100.00
4972;BME280;2501;51.214;6.768;2022-07-06T02:21:06;102054.91;;;13.95;100.00
4972;BME280;2501;51.214;6.768;2022-07-06T02:23:35;102055.91;;;14.09;100.00
4972;BME280;2501;51.214;6.768;2022-07-06T02:26:06;102046.50;;;13.91;100.00
4972;BME280;2501;51.214;6.768;2022-07-06T02:28:35;102054.94;;;13.98;100.00
4972;BME280;2501;51.214;6.768;2022-07-06T02:31:03;102051.91;;;14.07;100.00
4972;BME280;2501;51.214;6.768;2022-07-06T02:33:32;102045.41;;;13.99;100.00
4972;BME280;2501;51.214;6.768;2022-07-06T02:36:00;102051.59;;;14.15;100.00
4972;BME280;2501;51.214;6.768;2022-07-06T02:38:29;102035.41;;;14.25;100.00
4972;BME280;2501;51.214;6.768;2022-07-06T02:40:57;102038.50;;;14.19;100.00
4972;BME280;2501;51.214;6.768;2022-07-06T02:43:28;102044.16;;;14.23;100.00
4972;BME280;2501;51.214;6.768;2022-07-06T02:45:57;102042.53;;;14.22;100.00
4972;BME280;2501;51.214;6.768;2022-07-06T02:48:26;102044.03;;;14.16;100.00
4972;BME280;2501;51.214;6.768;2022-07-06T02:50:55;102044.47;;;14.18;100.00
4972;BME280;2501;51.214;6.768;2022-07-06T02:53:24;102035.03;;;14.26;100.00
4972;BME280;2501;51.214;6.768;2022-07-06T02:55:52;102051.22;;;14.17;100.00
4972;BME280;2501;51.214;6.768;2022-07-06T02:58:21;102056.13;;;14.27;100.00
4972;BME280;2501;51.214;6.768;2022-07-06T03:00:52;102062.50;;;14.28;100.00
4972;BME280;2501;51.214;6.768;2022-07-06T03:03:23;102055.44;;;14.07;100.00
4972;BME280;2501;51.214;6.768;2022-07-06T03:05:52;102064.28;;;14.13;100.00
4972;BME280;2501;51.214;6.768;2022-07-06T03:08:20;102060.44;;;14.21;100.00
4972;BME280;2501;51.214;6.768;2022-07-06T03:10:49;102055.34;;;14.00;100.00
4972;BME280;2501;51.214;6.768;2022-07-06T03:13:17;102070.63;;;14.10;100.00
4972;BME280;2501;51.214;6.768;2022-07-06T03:15:46;102068.25;;;14.12;100.00
4972;BME280;2501;51.214;6.768;2022-07-06T03:18:17;102072.78;;;13.94;100.00
4972;BME280;2501;51.214;6.768;2022-07-06T03:20:46;102073.31;;;14.03;100.00
4972;BME280;2501;51.214;6.768;2022-07-06T03:23:14;102070.13;;;14.04;100.00
4972;BME280;2501;51.214;6.768;2022-07-06T03:25:43;102072.63;;;13.83;100.00
4972;BME280;2501;51.214;6.768;2022-07-06T03:28:11;102070.78;;;13.94;100.00
4972;BME280;2501;51.214;6.768;2022-07-06T03:30:40;102072.72;;;13.90;100.00
4972;BME280;2501;51.214;6.768;2022-07-06T03:33:08;102068.50;;;13.73;100.00
4972;BME280;2501;51.214;6.768;2022-07-06T03:35:39;102076.53;;;13.79;100.00
4972;BME280;2501;51.214;6.768;2022-07-06T03:38:08;102068.38;;;13.93;100.00
4972;BME280;2501;51.214;6.768;2022-07-06T03:40:36;102076.19;;;14.10;100.00
4972;BME280;2501;51.214;6.768;2022-07-06T03:43:05;102071.22;;;13.96;100.00
4972;BME280;2501;51.214;6.768;2022-07-06T03:45:33;102071.75;;;14.05;100.00
4972;BME280;2501;51.214;6.768;2022-07-06T03:48:02;102082.84;;;13.76;100.00
4972;BME280;2501;51.214;6.768;2022-07-06T03:50:31;102081.94;;;13.68;100.00
4972;BME280;2501;51.214;6.768;2022-07-06T03:53:02;102085.44;;;13.88;100.00
4972;BME280;2501;51.214;6.768;2022-07-06T03:55:30;102078.41;;;13.97;100.00
4972;BME280;2501;51.214;6.768;2022-07-06T03:57:59;102068.78;;;13.91;100.00
4972;BME280;2501;51.214;6.768;2022-07-06T04:00:27;102072.34;;;13.92;100.00
4972;BME280;2501;51.214;6.768;2022-07-06T04:02:56;102079.69;;;13.77;100.00
4972;BME280;2501;51.214;6.768;2022-07-06T04:05:24;102073.00;;;13.82;100.00
4972;BME280;2501;51.214;6.768;2022-07-06T04:07:53;102078.66;;;13.89;100.00
4972;BME280;2501;51.214;6.768;2022-07-06T04:10:24;102068.91;;;14.02;100.00
4972;BME280;2501;51.214;6.768;2022-07-06T04:12:53;102080.38;;;13.97;100.00
4972;BME280;2501;51.214;6.768;2022-07-06T04:15:21;102082.56;;;14.10;100.00
4972;BME280;2501;51.214;6.768;2022-07-06T04:17:49;102075.34;;;14.06;100.00
4972;BME280;2501;51.214;6.768;2022-07-06T04:20:23;102078.75;;;14.22;100.00
4972;BME280;2501;51.214;6.768;2022-07-06T04:22:52;102082.22;;;14.15;100.00
4972;BME280;2501;51.214;6.768;2022-07-06T04:25:20;102082.22;;;14.15;100.00
4972;BME280;2501;51.214;6.768;2022-07-06T04:27:51;102087.47;;;14.20;100.00
4972;BME280;2501;51.214;6.768;2022-07-06T04:30:20;102079.66;;;14.30;100.00
4972;BME280;2501;51.214;6.768;2022-07-06T04:32:48;102073.22;;;14.26;100.00
4972;BME280;2501;51.214;6.768;2022-07-06T04:35:17;102076.81;;;14.26;100.00
4972;BME280;2501;51.214;6.768;2022-07-06T04:37:46;102088.13;;;14.37;100.00
4972;BME280;2501;51.214;6.768;2022-07-06T04:40:14;102086.97;;;14.38;100.00
4972;BME280;2501;51.214;6.768;2022-07-06T04:42:43;102083.31;;;14.67;100.00
4972;BME280;2501;51.214;6.768;2022-07-06T04:45:14;102080.91;;;14.62;100.00
4972;BME280;2501;51.214;6.768;2022-07-06T04:47:42;102090.00;;;14.59;100.00
4972;BME280;2501;51.214;6.768;2022-07-06T04:50:12;102076.78;;;14.86;100.00
4972;BME280;2501;51.214;6.768;2022-07-06T04:52:40;102080.34;;;14.86;100.00
4972;BME280;2501;51.214;6.768;2022-07-06T04:55:09;102068.75;;;14.81;100.00
4972;BME280;2501;51.214;6.768;2022-07-06T04:57:40;102075.53;;;15.17;100.00
4972;BME280;2501;51.214;6.768;2022-07-06T05:00:10;102075.03;;;15.07;100.00
4972;BME280;2501;51.214;6.768;2022-07-06T05:02:41;102087.81;;;15.12;100.00
4972;BME280;2501;51.214;6.768;2022-07-06T05:05:10;102071.25;;;15.30;100.00
4972;BME280;2501;51.214;6.768;2022-07-06T05:07:38;102083.28;;;15.41;100.00
4972;BME280;2501;51.214;6.768;2022-07-06T05:10:08;102076.94;;;15.40;100.00
4972;BME280;2501;51.214;6.768;2022-07-06T05:12:38;102081.97;;;15.24;100.00
4972;BME280;2501;51.214;6.768;2022-07-06T05:15:08;102076.63;;;15.08;100.00
4972;BME280;2501;51.214;6.768;2022-07-06T05:17:36;102082.72;;;15.21;100.00
4972;BME280;2501;51.214;6.768;2022-07-06T05:20:08;102076.69;;;15.15;100.00
4972;BME280;2501;51.214;6.768;2022-07-06T05:22:37;102083.06;;;15.12;100.00
4972;BME280;2501;51.214;6.768;2022-07-06T05:25:06;102082.59;;;15.07;100.00
4972;BME280;2501;51.214;6.768;2022-07-06T05:27:34;102082.06;;;14.98;100.00
4972;BME280;2501;51.214;6.768;2022-07-06T05:30:04;102091.16;;;14.88;100.00
4972;BME280;2501;51.214;6.768;2022-07-06T05:32:32;102091.03;;;14.77;100.00
4972;BME280;2501;51.214;6.768;2022-07-06T05:35:01;102092.78;;;14.92;100.00
4972;BME280;2501;51.214;6.768;2022-07-06T05:37:33;102091.81;;;15.14;100.00
4972;BME280;2501;51.214;6.768;2022-07-06T05:40:01;102089.66;;;14.97;100.00
4972;BME280;2501;51.214;6.768;2022-07-06T05:42:30;102078.09;;;15.36;100.00
4972;BME280;2501;51.214;6.768;2022-07-06T05:44:58;102084.78;;;15.28;100.00
4972;BME280;2501;51.214;6.768;2022-07-06T05:47:28;102079.63;;;15.33;100.00
4972;BME280;2501;51.214;6.768;2022-07-06T05:50:09;102087.94;;;15.26;100.00
4972;BME280;2501;51.214;6.768;2022-07-06T05:52:54;102084.34;;;15.66;100.00
4972;BME280;2501;51.214;6.768;2022-07-06T05:55:23;102093.22;;;15.79;100.00
4972;BME280;2501;51.214;6.768;2022-07-06T05:57:52;102088.63;;;15.53;100.00
4972;BME280;2501;51.214;6.768;2022-07-06T06:00:22;102089.34;;;15.94;100.00
4972;BME280;2501;51.214;6.768;2022-07-06T06:02:51;102095.78;;;16.05;100.00
4972;BME280;2501;51.214;6.768;2022-07-06T06:05:20;102094.97;;;16.01;100.00
4972;BME280;2501;51.214;6.768;2022-07-06T06:07:51;102095.28;;;15.89;100.00
4972;BME280;2501;51.214;6.768;2022-07-06T06:10:20;102100.66;;;16.15;100.00
4972;BME280;2501;51.214;6.768;2022-07-06T06:12:50;102091.97;;;16.31;100.00
4972;BME280;2501;51.214;6.768;2022-07-06T06:15:19;102096.34;;;16.32;100.00
4972;BME280;2501;51.214;6.768;2022-07-06T06:17:47;102105.34;;;16.66;100.00
4972;BME280;2501;51.214;6.768;2022-07-06T06:20:15;102095.75;;;16.70;100.00
4972;BME280;2501;51.214;6.768;2022-07-06T06:22:46;102089.38;;;16.73;100.00
4972;BME280;2501;51.214;6.768;2022-07-06T06:25:19;102091.47;;;17.01;100.00
4972;BME280;2501;51.214;6.768;2022-07-06T06:27:47;102090.25;;;16.98;100.00
4972;BME280;2501;51.214;6.768;2022-07-06T06:30:16;102094.72;;;17.45;100.00
4972;BME280;2501;51.214;6.768;2022-07-06T06:32:44;102091.16;;;17.66;100.00
4972;BME280;2501;51.214;6.768;2022-07-06T06:35:13;102089.16;;;17.77;100.00
4972;BME280;2501;51.214;6.768;2022-07-06T06:37:41;102085.13;;;17.32;100.00
4972;BME280;2501;51.214;6.768;2022-07-06T06:40:11;102091.13;;;17.52;100.00
4972;BME280;2501;51.214;6.768;2022-07-06T06:42:42;102087.50;;;17.34;100.00
4972;BME280;2501;51.214;6.768;2022-07-06T06:45:10;102089.13;;;17.21;100.00
4972;BME280;2501;51.214;6.768;2022-07-06T06:47:39;102083.91;;;17.19;100.00
4972;BME280;2501;51.214;6.768;2022-07-06T06:50:08;102083.50;;;17.28;100.00
4972;BME280;2501;51.214;6.768;2022-07-06T06:52:36;102083.09;;;17.26;100.00
4972;BME280;2501;51.214;6.768;2022-07-06T06:55:06;102086.75;;;17.58;100.00
4972;BME280;2501;51.214;6.768;2022-07-06T06:57:35;102099.94;;;17.61;100.00
4972;BME280;2501;51.214;6.768;2022-07-06T07:00:07;102092.31;;;17.55;100.00
4972;BME280;2501;51.214;6.768;2022-07-06T07:02:36;102090.34;;;17.90;100.00
4972;BME280;2501;51.214;6.768;2022-07-06T07:05:06;102093.97;;;17.59;100.00
4972;BME280;2501;51.214;6.768;2022-07-06T07:07:34;102089.13;;;18.02;100.00
4972;BME280;2501;51.214;6.768;2022-07-06T07:10:04;102098.72;;;17.52;100.00
4972;BME280;2501;51.214;6.768;2022-07-06T07:12:33;102094.72;;;17.88;100.00
4972;BME280;2501;51.214;6.768;2022-07-06T07:15:02;102091.91;;;18.09;100.00
4972;BME280;2501;51.214;6.768;2022-07-06T07:17:33;102109.13;;;18.15;100.00
4972;BME280;2501;51.214;6.768;2022-07-06T07:20:02;102092.72;;;17.95;100.00
4972;BME280;2501;51.214;6.768;2022-07-06T07:22:31;102095.53;;;17.85;100.00
4972;BME280;2501;51.214;6.768;2022-07-06T07:25:00;102100.75;;;17.83;100.00
4972;BME280;2501;51.214;6.768;2022-07-06T07:27:29;102094.75;;;17.84;100.00
4972;BME280;2501;51.214;6.768;2022-07-06T07:29:59;102099.97;;;17.79;100.00
4972;BME280;2501;51.214;6.768;2022-07-06T07:32:28;102105.53;;;18.00;100.00
4972;BME280;2501;51.214;6.768;2022-07-06T07:34:59;102107.13;;;18.01;100.00
4972;BME280;2501;51.214;6.768;2022-07-06T07:37:28;102105.09;;;18.26;100.00
4972;BME280;2501;51.214;6.768;2022-07-06T07:39:56;102107.16;;;17.76;100.00
4972;BME280;2501;51.214;6.768;2022-07-06T07:42:24;102095.16;;;17.76;100.00
4972;BME280;2501;51.214;6.768;2022-07-06T07:44:53;102101.56;;;17.90;100.00
4972;BME280;2501;51.214;6.768;2022-07-06T07:47:22;102103.50;;;18.04;100.00
4972;BME280;2501;51.214;6.768;2022-07-06T07:49:50;102100.31;;;18.13;100.00
4972;BME280;2501;51.214;6.768;2022-07-06T07:52:21;102101.81;;;18.46;100.00
4972;BME280;2501;51.214;6.768;2022-07-06T07:54:50;102101.78;;;18.63;100.00
4972;BME280;2501;51.214;6.768;2022-07-06T07:57:18;102100.59;;;18.57;100.00
4972;BME280;2501;51.214;6.768;2022-07-06T07:59:47;102096.16;;;18.63;100.00
4972;BME280;2501;51.214;6.768;2022-07-06T08:02:15;102101.66;;;18.92;100.00
4972;BME280;2501;51.214;6.768;2022-07-06T08:04:44;102100.47;;;18.82;100.00
4972;BME280;2501;51.214;6.768;2022-07-06T08:07:12;102101.69;;;18.84;100.00
4972;BME280;2501;51.214;6.768;2022-07-06T08:09:44;102098.28;;;19.18;100.00
4972;BME280;2501;51.214;6.768;2022-07-06T08:12:12;102093.41;;;19.25;100.00
4972;BME280;2501;51.214;6.768;2022-07-06T08:14:41;102098.72;;;19.09;100.00
4972;BME280;2501;51.214;6.768;2022-07-06T08:17:09;102093.38;;;18.60;100.00
4972;BME280;2501;51.214;6.768;2022-07-06T08:19:37;102091.84;;;18.37;100.00
4972;BME280;2501;51.214;6.768;2022-07-06T08:22:06;102089.31;;;18.71;100.00
4972;BME280;2501;51.214;6.768;2022-07-06T08:24:35;102091.59;;;18.94;100.00
4972;BME280;2501;51.214;6.768;2022-07-06T08:27:06;102086.16;;;18.59;100.00
4972;BME280;2501;51.214;6.768;2022-07-06T08:29:34;102096.31;;;18.10;100.00
4972;BME280;2501;51.214;6.768;2022-07-06T08:32:04;102092.72;;;18.03;100.00
4972;BME280;2501;51.214;6.768;2022-07-06T08:34:32;102081.34;;;19.32;100.00
4972;BME280;2501;51.214;6.768;2022-07-06T08:37:01;102087.50;;;19.13;100.00
4972;BME280;2501;51.214;6.768;2022-07-06T08:39:30;102089.34;;;18.64;100.00
4972;BME280;2501;51.214;6.768;2022-07-06T08:41:58;102079.69;;;18.76;100.00
4972;BME280;2501;51.214;6.768;2022-07-06T08:44:32;102084.09;;;18.77;100.00
4972;BME280;2501;51.214;6.768;2022-07-06T08:47:04;102090.09;;;18.75;100.00
4972;BME280;2501;51.214;6.768;2022-07-06T08:49:34;102092.91;;;18.72;100.00
4972;BME280;2501;51.214;6.768;2022-07-06T08:52:08;102097.81;;;18.43;100.00
4972;BME280;2501;51.214;6.768;2022-07-06T08:54:38;102095.81;;;18.43;100.00
4972;BME280;2501;51.214;6.768;2022-07-06T08:57:13;102094.97;;;18.64;100.00
4972;BME280;2501;51.214;6.768;2022-07-06T08:59:45;102090.94;;;18.69;100.00
4972;BME280;2501;51.214;6.768;2022-07-06T09:02:13;102087.75;;;19.32;100.00
4972;BME280;2501;51.214;6.768;2022-07-06T09:04:43;102094.16;;;19.36;100.00
4972;BME280;2501;51.214;6.768;2022-07-06T09:07:11;102093.13;;;19.68;100.00
4972;BME280;2501;51.214;6.768;2022-07-06T09:09:40;102088.28;;;19.68;100.00
4972;BME280;2501;51.214;6.768;2022-07-06T09:12:11;102092.13;;;19.37;100.00
4972;BME280;2501;51.214;6.768;2022-07-06T09:14:43;102089.44;;;19.19;100.00
4972;BME280;2501;51.214;6.768;2022-07-06T09:17:12;102095.16;;;19.02;100.00
4972;BME280;2501;51.214;6.768;2022-07-06T09:19:41;102086.09;;;18.73;100.00
4972;BME280;2501;51.214;6.768;2022-07-06T09:22:24;102080.78;;;18.96;100.00
4972;BME280;2501;51.214;6.768;2022-07-06T09:24:53;102077.28;;;19.33;100.00
4972;BME280;2501;51.214;6.768;2022-07-06T09:27:22;102074.13;;;19.31;100.00
4972;BME280;2501;51.214;6.768;2022-07-06T09:29:53;102075.47;;;19.67;100.00
4972;BME280;2501;51.214;6.768;2022-07-06T09:32:21;102064.06;;;19.33;100.00
4972;BME280;2501;51.214;6.768;2022-07-06T09:34:50;102068.59;;;19.72;100.00
4972;BME280;2501;51.214;6.768;2022-07-06T09:37:21;102062.91;;;19.79;100.00
4972;BME280;2501;51.214;6.768;2022-07-06T09:39:50;102077.03;;;20.47;99.91
4972;BME280;2501;51.214;6.768;2022-07-06T09:42:24;102068.88;;;20.22;98.41
4972;BME280;2501;51.214;6.768;2022-07-06T09:44:57;102068.16;;;20.14;89.09
4972;BME280;2501;51.214;6.768;2022-07-06T09:47:26;102054.94;;;20.08;97.41
4972;BME280;2501;51.214;6.768;2022-07-06T09:49:55;102063.09;;;20.36;96.76
4972;BME280;2501;51.214;6.768;2022-07-06T09:52:24;102064.50;;;20.17;100.00
4972;BME280;2501;51.214;6.768;2022-07-06T09:54:52;102074.44;;;19.88;100.00
4972;BME280;2501;51.214;6.768;2022-07-06T09:57:21;102072.22;;;20.10;100.00
4972;BME280;2501;51.214;6.768;2022-07-06T09:59:50;102067.84;;;20.43;100.00
4972;BME280;2501;51.214;6.768;2022-07-06T10:02:22;102073.19;;;19.93;100.00
4972;BME280;2501;51.214;6.768;2022-07-06T10:04:54;102060.81;;;20.24;100.00
4972;BME280;2501;51.214;6.768;2022-07-06T10:07:24;102069.97;;;20.32;100.00
4972;BME280;2501;51.214;6.768;2022-07-06T10:09:53;102063.69;;;20.85;97.92
4972;BME280;2501;51.214;6.768;2022-07-06T10:12:22;102070.69;;;21.00;92.00
4972;BME280;2501;51.214;6.768;2022-07-06T10:14:51;102062.44;;;21.16;96.27
4972;BME280;2501;51.214;6.768;2022-07-06T10:17:23;102066.75;;;21.24;92.45
4972;BME280;2501;51.214;6.768;2022-07-06T10:19:53;102069.84;;;20.76;86.76
4972;BME280;2501;51.214;6.768;2022-07-06T10:22:23;102070.84;;;20.25;90.30
4972;BME280;2501;51.214;6.768;2022-07-06T10:24:52;102062.97;;;20.09;93.20
4972;BME280;2501;51.214;6.768;2022-07-06T10:27:21;102051.88;;;21.23;86.28
4972;BME280;2501;51.214;6.768;2022-07-06T10:29:52;102060.75;;;21.68;80.52
4972;BME280;2501;51.214;6.768;2022-07-06T10:32:23;102058.53;;;20.80;80.96
4972;BME280;2501;51.214;6.768;2022-07-06T10:34:52;102059.53;;;20.93;80.75
4972;BME280;2501;51.214;6.768;2022-07-06T10:37:23;102063.56;;;20.92;80.43
4972;BME280;2501;51.214;6.768;2022-07-06T10:39:52;102060.34;;;20.93;81.73
4972;BME280;2501;51.214;6.768;2022-07-06T10:42:40;102062.53;;;21.09;78.32
4972;BME280;2501;51.214;6.768;2022-07-06T10:45:12;102065.47;;;21.29;78.18
4972;BME280;2501;51.214;6.768;2022-07-06T10:47:44;102058.28;;;20.97;81.49
4972;BME280;2501;51.214;6.768;2022-07-06T10:50:13;102054.56;;;21.54;78.70
4972;BME280;2501;51.214;6.768;2022-07-06T10:52:48;102066.53;;;21.11;77.58
4972;BME280;2501;51.214;6.768;2022-07-06T10:55:31;102059.44;;;20.73;82.08
4972;BME280;2501;51.214;6.768;2022-07-06T10:58:00;102063.19;;;21.20;79.68
4972;BME280;2501;51.214;6.768;2022-07-06T11:00:49;102055.06;;;20.68;78.74
4972;BME280;2501;51.214;6.768;2022-07-06T11:03:38;102056.22;;;21.01;80.57
4972;BME280;2501;51.214;6.768;2022-07-06T11:06:10;102057.78;;;21.56;78.58
4972;BME280;2501;51.214;6.768;2022-07-06T11:08:53;102049.50;;;22.11;78.22
4972;BME280;2501;51.214;6.768;2022-07-06T11:11:24;102042.94;;;22.38;77.67
4972;BME280;2501;51.214;6.768;2022-07-06T11:13:55;102046.97;;;21.74;77.22
4972;BME280;2501;51.214;6.768;2022-07-06T11:16:26;102055.78;;;22.19;75.48
4972;BME280;2501;51.214;6.768;2022-07-06T11:19:06;102047.72;;;21.55;75.85
4972;BME280;2501;51.214;6.768;2022-07-06T11:21:45;102048.50;;;21.55;75.35
4972;BME280;2501;51.214;6.768;2022-07-06T11:24:15;102052.97;;;21.53;77.48
4972;BME280;2501;51.214;6.768;2022-07-06T11:26:45;102053.34;;;21.32;76.42
4972;BME280;2501;51.214;6.768;2022-07-06T11:29:16;102047.25;;;21.33;77.22
4972;BME280;2501;51.214;6.768;2022-07-06T11:31:47;102035.94;;;21.83;76.64
4972;BME280;2501;51.214;6.768;2022-07-06T11:34:21;102050.88;;;21.80;74.83
4972;BME280;2501;51.214;6.768;2022-07-06T11:36:55;102042.22;;;21.48;76.12
4972;BME280;2501;51.214;6.768;2022-07-06T11:39:26;102032.22;;;22.29;74.82
4972;BME280;2501;51.214;6.768;2022-07-06T11:41:55;102042.22;;;22.53;70.64
4972;BME280;2501;51.214;6.768;2022-07-06T11:44:24;102039.94;;;22.84;70.35
4972;BME280;2501;51.214;6.768;2022-07-06T11:46:52;102042.16;;;22.93;68.88
4972;BME280;2501;51.214;6.768;2022-07-06T11:49:25;102032.69;;;22.63;68.76
4972;BME280;2501;51.214;6.768;2022-07-06T11:51:54;102039.81;;;23.24;66.81
4972;BME280;2501;51.214;6.768;2022-07-06T11:54:23;102036.44;;;23.61;63.65
4972;BME280;2501;51.214;6.768;2022-07-06T11:56:53;102032.81;;;24.06;62.63
4972;BME280;2501;51.214;6.768;2022-07-06T11:59:25;102037.34;;;23.58;61.54
4972;BME280;2501;51.214;6.768;2022-07-06T12:01:58;102035.03;;;23.69;62.83
4972;BME280;2501;51.214;6.768;2022-07-06T12:04:30;102033.72;;;23.09;63.10
4972;BME280;2501;51.214;6.768;2022-07-06T12:07:00;102042.88;;;23.13;64.20
4972;BME280;2501;51.214;6.768;2022-07-06T12:09:31;102030.06;;;22.37;66.12
4972;BME280;2501;51.214;6.768;2022-07-06T12:12:00;102028.22;;;23.18;66.20
4972;BME280;2501;51.214;6.768;2022-07-06T12:14:30;102026.84;;;23.42;64.65
4972;BME280;2501;51.214;6.768;2022-07-06T12:17:03;102023.34;;;23.02;66.28
4972;BME280;2501;51.214;6.768;2022-07-06T12:19:35;102025.13;;;22.41;66.67
4972;BME280;2501;51.214;6.768;2022-07-06T12:22:04;102013.31;;;21.87;70.92
4972;BME280;2501;51.214;6.768;2022-07-06T12:24:37;102020.06;;;21.93;73.12
4972;BME280;2501;51.214;6.768;2022-07-06T12:27:12;102015.22;;;22.13;72.19
4972;BME280;2501;51.214;6.768;2022-07-06T12:29:41;102012.75;;;21.72;72.23
4972;BME280;2501;51.214;6.768;2022-07-06T12:32:14;102013.50;;;21.99;72.02
4972;BME280;2501;51.214;6.768;2022-07-06T12:34:46;102007.06;;;21.99;72.53
4972;BME280;2501;51.214;6.768;2022-07-06T12:37:15;101996.56;;;21.76;72.56
4972;BME280;2501;51.214;6.768;2022-07-06T12:39:45;102007.94;;;20.99;76.51
4972;BME280;2501;51.214;6.768;2022-07-06T12:42:16;101996.84;;;22.05;73.77
4972;BME280;2501;51.214;6.768;2022-07-06T12:44:47;102001.50;;;21.95;74.57
4972;BME280;2501;51.214;6.768;2022-07-06T12:47:19;101997.72;;;22.22;73.20
4972;BME280;2501;51.214;6.768;2022-07-06T12:50:04;101988.06;;;22.39;73.42
4972;BME280;2501;51.214;6.768;2022-07-06T12:52:33;101989.63;;;21.81;76.54
4972;BME280;2501;51.214;6.768;2022-07-06T12:55:02;101983.94;;;22.43;70.99
4972;BME280;2501;51.214;6.768;2022-07-06T12:57:42;101990.28;;;21.88;70.40
4972;BME280;2501;51.214;6.768;2022-07-06T13:00:19;101989.63;;;22.04;69.75
4972;BME280;2501;51.214;6.768;2022-07-06T13:02:50;101984.88;;;21.78;71.45
4972;BME280;2501;51.214;6.768;2022-07-06T13:05:26;101989.13;;;22.09;70.65
4972;BME280;2501;51.214;6.768;2022-07-06T13:07:57;101983.78;;;22.14;70.79
4972;BME280;2501;51.214;6.768;2022-07-06T13:10:27;101983.78;;;22.14;71.68
4972;BME280;2501;51.214;6.768;2022-07-06T13:12:56;101992.34;;;22.07;71.55
4972;BME280;2501;51.214;6.768;2022-07-06T13:15:25;101988.47;;;22.01;71.22
4972;BME280;2501;51.214;6.768;2022-07-06T13:17:53;101988.97;;;21.96;72.31